Time;durP1;ratioP1;P1;durP2;ratioP2;P2;SDS_P1;SDS_P2;PMS_P1;PMS_P2;Temp;Humidity;BMP_temperature;BMP_pressure;BME280_temperature;BME280_humidity;BME280_pressure;Samples;Min_cycle;Max_cycle;Signal;HPM_P1;HPM_P2
2023/12/17 00:00:34;;;;;;;9.23;7.05;;;;;;;-1.70;100.00;61827.91;5083401;28;20194;-80
2023/12/17 00:03:01;;;;;;;10.88;6.90;;;;;;;-1.64;100.00;61834.06;5072160;28;20233;-78
2023/12/17 00:05:28;;;;;;;9.98;6.45;;;;;;;-1.74;100.00;61819.34;5084518;28;20228;-79
2023/12/17 00:07:55;;;;;;;6.75;5.22;;;;;;;-1.80;100.00;61813.22;5071766;28;20225;-79
2023/12/17 00:10:22;;;;;;;8.80;5.75;;;;;;;-1.77;100.00;61816.28;5079766;28;20204;-80
2023/12/17 00:12:50;;;;;;;8.10;5.75;;;;;;;-1.74;100.00;61821.84;5087015;28;20288;-79
2023/12/17 00:15:17;;;;;;;7.55;5.68;;;;;;;-1.80;100.00;61820.19;5072218;28;20336;-80
2023/12/17 00:17:44;;;;;;;8.50;6.30;;;;;;;-1.78;100.00;61814.75;5086599;28;20212;-79
2023/12/17 00:20:12;;;;;;;7.68;6.10;;;;;;;-1.73;100.00;61822.38;5088799;28;20197;-80
2023/12/17 00:22:39;;;;;;;7.13;6.00;;;;;;;-1.84;100.00;61811.09;5071806;28;20233;-80
2023/12/17 00:25:07;;;;;;;9.77;6.53;;;;;;;-1.81;100.00;61812.19;5071334;28;20201;-80
2023/12/17 00:27:34;;;;;;;9.60;6.57;;;;;;;-1.77;100.00;61815.78;5085580;28;20219;-79
2023/12/17 00:30:02;;;;;;;11.73;6.40;;;;;;;-1.78;100.00;61814.75;5081619;28;20402;-80
2023/12/17 00:32:30;;;;;;;9.38;6.60;;;;;;;-1.79;100.00;61813.72;5073858;28;20235;-80
2023/12/17 00:34:57;;;;;;;11.10;6.80;;;;;;;-1.84;100.00;61808.59;5077820;28;20197;-79
2023/12/17 00:37:24;;;;;;;8.57;6.35;;;;;;;-1.92;100.00;61805.94;5087228;28;20204;-79
2023/12/17 00:39:51;;;;;;;8.40;5.90;;;;;;;-1.97;100.00;61797.81;5082611;28;20398;-80
2023/12/17 00:42:18;;;;;;;8.25;5.90;;;;;;;-1.90;100.00;61804.97;5082328;28;20566;-80
2023/12/17 00:44:45;;;;;;;9.35;5.80;;;;;;;-1.92;100.00;61808.44;5081928;28;20197;-79
2023/12/17 00:47:13;;;;;;;7.38;6.05;;;;;;;-2.01;100.00;61801.72;5078081;28;20206;-80
2023/12/17 00:49:40;;;;;;;7.93;5.95;;;;;;;-2.00;100.00;61800.25;5082390;28;20429;-80
2023/12/17 00:52:07;;;;;;;8.80;6.50;;;;;;;-2.07;100.00;61790.59;5090487;28;20226;-81
2023/12/17 00:54:34;;;;;;;6.78;5.70;;;;;;;-2.02;100.00;61792.72;5084894;28;20259;-79
2023/12/17 00:57:02;;;;;;;8.95;5.97;;;;;;;-2.05;100.00;61787.16;5077036;28;20201;-80
2023/12/17 00:59:29;;;;;;;8.13;5.85;;;;;;;-2.05;100.00;61794.63;5078484;28;20232;-79
2023/12/17 01:01:56;;;;;;;6.10;5.47;;;;;;;-2.11;100.00;61786.50;5070239;28;20264;-80
2023/12/17 01:04:24;;;;;;;8.23;5.78;;;;;;;-2.10;100.00;61784.50;5070814;28;20288;-80
2023/12/17 01:06:51;;;;;;;6.82;6.13;;;;;;;-2.24;100.00;61770.22;5071533;28;20201;-79
2023/12/17 01:09:18;;;;;;;4.72;4.22;;;;;;;-2.20;100.00;61774.81;5070612;28;20217;-79
2023/12/17 01:11:45;;;;;;;5.10;4.60;;;;;;;-2.14;100.00;61780.44;5076730;28;20204;-79
2023/12/17 01:14:12;;;;;;;5.15;4.38;;;;;;;-2.13;100.00;61781.44;5083903;28;20224;-81
2023/12/17 01:16:39;;;;;;;4.82;3.90;;;;;;;-2.28;100.00;61766.63;5077337;28;20197;-79
2023/12/17 01:19:05;;;;;;;5.20;4.10;;;;;;;-2.22;100.00;61772.25;5088020;28;20212;-81
2023/12/17 01:21:34;;;;;;;3.95;3.55;;;;;;;-2.23;100.00;61771.22;5077464;28;20207;-81
2023/12/17 01:24:01;;;;;;;7.95;4.70;;;;;;;-2.20;100.00;61772.31;5086056;28;20239;-81
2023/12/17 01:26:29;;;;;;;5.00;4.10;;;;;;;-2.33;100.00;61758.50;5069214;28;20193;-78
2023/12/17 01:28:56;;;;;;;5.07;4.00;;;;;;;-2.27;100.00;61767.66;5069322;28;20289;-80
2023/12/17 01:31:23;;;;;;;4.70;3.80;;;;;;;-2.35;100.00;61759.47;5073907;28;20276;-80
2023/12/17 01:33:50;;;;;;;3.20;2.90;;;;;;;-2.33;100.00;61759.03;5078306;28;20239;-79
2023/12/17 01:36:17;;;;;;;4.43;3.65;;;;;;;-2.38;100.00;61758.88;5089514;28;20224;-78
2023/12/17 01:38:46;;;;;;;4.15;3.05;;;;;;;-2.46;100.00;61753.72;5072255;28;20233;-79
2023/12/17 01:41:13;;;;;;;4.07;3.20;;;;;;;-2.46;100.00;61748.22;5069369;28;20196;-79
2023/12/17 01:43:39;;;;;;;3.80;3.35;;;;;;;-2.46;100.00;61756.22;5084601;28;20282;-80
2023/12/17 01:46:06;;;;;;;3.88;3.58;;;;;;;-2.47;100.00;61747.72;5070619;28;20201;-79
2023/12/17 01:48:33;;;;;;;4.15;3.65;;;;;;;-2.45;100.00;61754.75;5082361;28;20227;-79
2023/12/17 01:51:00;;;;;;;4.00;3.45;;;;;;;-2.47;100.00;61744.72;5085399;28;20239;-79
2023/12/17 01:53:28;;;;;;;4.47;3.90;;;;;;;-2.58;100.00;61735.97;5081554;28;20532;-79
2023/12/17 01:55:56;;;;;;;3.17;2.97;;;;;;;-2.52;100.00;61740.09;5066007;28;20232;-79
2023/12/17 01:58:23;;;;;;;4.45;3.58;;;;;;;-2.53;100.00;61741.06;5065783;28;20217;-79
2023/12/17 02:00:50;;;;;;;3.53;3.22;;;;;;;-2.51;100.00;61746.13;5066064;28;20201;-79
2023/12/17 02:03:17;;;;;;;3.90;3.55;;;;;;;-2.54;100.00;61735.06;5074636;28;20490;-79
2023/12/17 02:05:45;;;;;;;3.38;3.10;;;;;;;-2.60;100.00;61731.94;5084423;28;20221;-79
2023/12/17 02:08:12;;;;;;;3.25;2.80;;;;;;;-2.60;100.00;61733.91;5079041;28;20228;-78
2023/12/17 02:10:39;;;;;;;3.50;3.15;;;;;;;-2.58;100.00;61738.44;5076222;28;20197;-79
2023/12/17 02:13:09;;;;;;;3.10;2.80;;;;;;;-2.65;100.00;61729.31;5069022;28;20296;-79
2023/12/17 02:15:37;;;;;;;3.22;2.88;;;;;;;-2.65;100.00;61731.28;5078774;28;20201;-79
2023/12/17 02:18:05;;;;;;;3.88;3.10;;;;;;;-2.70;100.00;61723.69;5083888;28;20232;-79
2023/12/17 02:20:32;;;;;;;3.28;2.97;;;;;;;-2.70;100.00;61721.72;5084549;28;20216;-78
2023/12/17 02:23:00;;;;;;;2.78;2.58;;;;;;;-2.68;100.00;61725.75;5079735;28;20247;-79
2023/12/17 02:25:29;;;;;;;5.60;3.55;;;;;;;-2.68;100.00;61726.25;5068079;28;20197;-80
2023/12/17 02:27:57;;;;;;;3.85;3.42;;;;;;;-2.63;100.00;61728.88;5075793;28;20237;-78
2023/12/17 02:30:24;;;;;;;3.42;3.13;;;;;;;-2.56;100.00;61743.50;5084246;28;20296;-80
2023/12/17 02:32:51;;;;;;;5.93;3.63;;;;;;;-2.65;100.00;61728.81;5087137;28;20217;-81
2023/12/17 02:35:19;;;;;;;5.90;4.07;;;;;;;-2.63;100.00;61731.38;5090623;28;20323;-79
2023/12/17 02:37:45;;;;;;;4.13;3.33;;;;;;;-2.59;100.00;61737.44;5083112;28;20221;-80
2023/12/17 02:40:13;;;;;;;5.15;4.40;;;;;;;-2.66;100.00;61728.28;5083408;28;20203;-79
2023/12/17 02:42:41;;;;;;;5.18;4.13;;;;;;;-2.63;100.00;61728.88;5091508;28;20237;-79
2023/12/17 02:45:09;;;;;;;6.20;4.97;;;;;;;-2.61;100.00;61735.91;5081233;28;20197;-81
2023/12/17 02:47:36;;;;;;;6.75;4.60;;;;;;;-2.62;100.00;61732.38;5081537;28;20268;-80
2023/12/17 02:50:03;;;;;;;4.90;4.40;;;;;;;-2.61;100.00;61732.91;5083013;28;20200;-77
2023/12/17 02:52:30;;;;;;;5.57;4.68;;;;;;;-2.66;100.00;61733.25;5076179;28;20205;-80
2023/12/17 02:54:58;;;;;;;5.00;4.47;;;;;;;-2.66;100.00;61728.28;5089823;28;20211;-79
2023/12/17 02:57:26;;;;;;;5.72;4.97;;;;;;;-2.75;100.00;61716.09;5085310;28;20537;-79
2023/12/17 02:59:55;;;;;;;5.93;4.97;;;;;;;-2.60;100.00;61736.91;5079977;28;20212;-79
2023/12/17 03:02:21;;;;;;;4.65;4.25;;;;;;;-2.68;100.00;61728.75;5086067;28;20246;-79
2023/12/17 03:04:48;;;;;;;4.40;4.00;;;;;;;-2.72;100.00;61724.13;5073952;28;20201;-80
2023/12/17 03:07:15;;;;;;;6.18;4.43;;;;;;;-2.67;100.00;61729.25;5072454;28;20197;-80
2023/12/17 03:09:42;;;;;;;4.07;3.33;;;;;;;-2.71;100.00;61723.19;5080988;28;20209;-80
2023/12/17 03:12:09;;;;;;;5.40;4.00;;;;;;;-2.67;100.00;61726.75;5079848;28;20211;-80
2023/12/17 03:14:36;;;;;;;4.05;3.65;;;;;;;-2.72;100.00;61722.16;5084282;28;20217;-79
2023/12/17 03:17:04;;;;;;;4.45;4.05;;;;;;;-2.68;100.00;61726.25;5074732;28;20250;-79
2023/12/17 03:19:31;;;;;;;6.75;4.47;;;;;;;-2.76;100.00;61720.56;5086589;28;20228;-79
2023/12/17 03:21:58;;;;;;;5.40;4.35;;;;;;;-2.88;100.00;61705.81;5086065;28;20208;-79
2023/12/17 03:24:26;;;;;;;5.00;4.40;;;;;;;-2.70;100.00;61726.19;5075798;28;20533;-78
2023/12/17 03:26:53;;;;;;;5.20;4.28;;;;;;;-2.73;100.00;61721.16;5085047;28;20205;-79
2023/12/17 03:29:20;;;;;;;4.68;3.40;;;;;;;-2.72;100.00;61719.16;5070505;28;20221;-79
2023/12/17 03:31:47;;;;;;;4.20;3.80;;;;;;;-2.75;100.00;61719.09;5077116;28;20193;-81
2023/12/17 03:34:16;;;;;;;4.32;3.92;;;;;;;-2.71;100.00;61725.16;5078573;28;20213;-79
2023/12/17 03:36:43;;;;;;;3.83;3.15;;;;;;;-2.71;100.00;61725.16;5086419;28;20272;-81
2023/12/17 03:39:10;;;;;;;4.75;4.07;;;;;;;-2.67;100.00;61727.28;5088061;28;20220;-80
2023/12/17 03:41:37;;;;;;;4.70;3.60;;;;;;;-2.69;100.00;61722.22;5072740;28;20201;-79
2023/12/17 03:44:04;;;;;;;4.60;3.58;;;;;;;-2.73;100.00;61721.16;5092799;28;20285;-79
2023/12/17 03:46:31;;;;;;;6.15;3.83;;;;;;;-2.70;100.00;61723.69;5084577;28;20197;-80
2023/12/17 03:48:58;;;;;;;8.48;5.28;;;;;;;-2.65;100.00;61731.81;5073165;28;20236;-80
2023/12/17 03:51:27;;;;;;;4.68;3.45;;;;;;;-2.63;100.00;61728.34;5072763;28;20257;-80
2023/12/17 03:53:54;;;;;;;4.85;3.65;;;;;;;-2.65;100.00;61729.31;5069394;28;20221;-79
2023/12/17 03:56:22;;;;;;;6.32;3.67;;;;;;;-2.64;100.00;61729.84;5076629;28;20203;-80
2023/12/17 03:58:49;;;;;;;8.02;5.05;;;;;;;-2.62;100.00;61729.38;5082873;28;20221;-80
2023/12/17 04:01:16;;;;;;;4.95;3.38;;;;;;;-2.65;100.00;61731.28;5077489;28;20211;-79
2023/12/17 04:03:43;;;;;;;6.82;4.65;;;;;;;-2.61;100.00;61735.91;5086046;28;20434;-79
2023/12/17 04:06:11;;;;;;;8.27;5.15;;;;;;;-2.65;100.00;61728.81;5071199;28;20225;-79
2023/12/17 04:08:39;;;;;;;7.30;4.70;;;;;;;-2.64;100.00;61732.81;5068920;28;20217;-79
2023/12/17 04:11:06;;;;;;;5.30;4.25;;;;;;;-2.64;100.00;61727.84;5081146;28;20224;-80
2023/12/17 04:13:33;;;;;;;6.07;4.07;;;;;;;-2.63;100.00;61730.84;5090923;28;20226;-80
2023/12/17 04:16:01;;;;;;;7.10;4.28;;;;;;;-2.63;100.00;61733.34;5088793;28;20387;-79
2023/12/17 04:18:27;;;;;;;4.97;4.28;;;;;;;-2.69;100.00;61722.22;5074584;28;20600;-78
2023/12/17 04:20:54;;;;;;;7.18;3.83;;;;;;;-2.68;100.00;61723.78;5072050;28;20423;-79
2023/12/17 04:23:21;;;;;;;5.18;3.92;;;;;;;-2.75;100.00;61718.59;5082175;28;20256;-79
2023/12/17 04:25:50;;;;;;;5.32;4.07;;;;;;;-2.69;100.00;61722.72;5069439;28;20424;-79
2023/12/17 04:28:17;;;;;;;4.65;4.22;;;;;;;-2.73;100.00;61720.63;5090097;28;20216;-81
2023/12/17 04:30:44;;;;;;;8.32;5.10;;;;;;;-2.81;100.00;61710.47;5082534;28;20213;-80
2023/12/17 04:33:12;;;;;;;6.18;4.43;;;;;;;-2.72;100.00;61722.16;5072041;28;20225;-80
2023/12/17 04:35:39;;;;;;;5.28;4.47;;;;;;;-2.80;100.00;61711.50;5071494;28;20201;-79
2023/12/17 04:38:05;;;;;;;7.15;4.30;;;;;;;-2.81;100.00;61709.97;5085604;28;20305;-79
2023/12/17 04:40:33;;;;;;;8.32;4.40;;;;;;;-2.75;100.00;61716.09;5073993;28;20202;-79
2023/12/17 04:43:01;;;;;;;5.32;3.80;;;;;;;-2.83;100.00;61710.91;5071175;28;20225;-78
2023/12/17 04:45:28;;;;;;;7.60;4.75;;;;;;;-2.80;100.00;61716.50;5090300;28;20196;-80
2023/12/17 04:47:56;;;;;;;4.88;4.40;;;;;;;-2.78;100.00;61715.53;5082400;28;20221;-79
2023/12/17 04:50:23;;;;;;;7.47;4.78;;;;;;;-2.83;100.00;61710.91;5071314;28;20518;-78
2023/12/17 04:52:50;;;;;;;9.48;5.40;;;;;;;-2.84;100.00;61709.38;5068715;28;20425;-79
2023/12/17 04:55:17;;;;;;;5.72;4.93;;;;;;;-2.91;100.00;61702.75;5070451;28;20201;-81
2023/12/17 04:57:44;;;;;;;10.07;5.45;;;;;;;-2.93;100.00;61697.69;5083433;28;20232;-82
2023/12/17 05:00:14;;;;;;;6.15;4.50;;;;;;;-2.86;100.00;61709.81;5089986;28;20200;-80
2023/12/17 05:02:41;;;;;;;7.45;4.80;;;;;;;-2.90;100.00;61700.78;5087512;28;20224;-80
2023/12/17 05:05:09;;;;;;;7.63;4.97;;;;;;;-2.88;100.00;61705.31;5088155;28;20196;-81
2023/12/17 05:07:36;;;;;;;7.85;5.30;;;;;;;-2.90;100.00;61701.28;5078031;28;20296;-79
2023/12/17 05:10:03;;;;;;;5.70;5.00;;;;;;;-2.91;100.00;61702.75;5078986;28;20303;-79
2023/12/17 05:12:30;;;;;;;11.32;5.97;;;;;;;-2.87;100.00;61706.84;5088165;28;20274;-79
2023/12/17 05:14:57;;;;;;;5.55;3.95;;;;;;;-2.79;100.00;61720.00;5089903;28;20208;-80
2023/12/17 05:17:25;;;;;;;5.07;4.45;;;;;;;-2.80;100.00;61716.50;5072506;28;20508;-80
2023/12/17 05:19:55;;;;;;;5.25;4.68;;;;;;;-2.91;100.00;61702.22;5079847;28;20213;-79
2023/12/17 05:22:23;;;;;;;8.85;4.90;;;;;;;-2.76;100.00;61717.56;5068467;28;20193;-79
2023/12/17 05:24:50;;;;;;;6.85;4.68;;;;;;;-3.10;100.00;61680.84;5079801;28;20227;-78
2023/12/17 05:27:17;;;;;;;5.75;4.82;;;;;;;-2.80;100.00;61716.50;5075902;28;20209;-79
2023/12/17 05:29:44;;;;;;;8.23;5.22;;;;;;;-2.81;100.00;61712.44;5087688;28;20220;-81
2023/12/17 05:32:11;;;;;;;4.70;4.10;;;;;;;-2.82;100.00;61711.44;5090008;28;20227;-80
2023/12/17 05:34:40;;;;;;;6.68;5.05;;;;;;;-2.76;100.00;61718.06;5074776;28;20221;-80
2023/12/17 05:37:07;;;;;;;7.18;4.80;;;;;;;-2.78;100.00;61715.53;5069281;28;20219;-79
2023/12/17 05:39:34;;;;;;;8.50;5.45;;;;;;;-2.74;100.00;61724.59;5078327;28;20379;-79
2023/12/17 05:42:01;;;;;;;11.98;7.47;;;;;;;-2.78;100.00;61713.03;5070278;28;20505;-80
2023/12/17 05:44:28;;;;;;;15.15;7.70;;;;;;;-2.79;100.00;61710.03;5073600;28;20266;-79
2023/12/17 05:46:55;;;;;;;17.35;8.80;;;;;;;-2.74;100.00;61720.13;5075044;28;20206;-79
2023/12/17 05:49:22;;;;;;;15.48;7.97;;;;;;;-2.74;100.00;61717.63;5078890;28;20232;-80
2023/12/17 05:51:51;;;;;;;15.63;7.70;;;;;;;-2.79;100.00;61719.47;5085596;28;20203;-80
2023/12/17 05:54:17;;;;;;;17.42;8.60;;;;;;;-2.73;100.00;61718.16;5086592;28;20225;-80
2023/12/17 05:56:44;;;;;;;12.02;8.35;;;;;;;-2.71;100.00;61725.66;5070613;28;20228;-79
2023/12/17 05:59:11;;;;;;;9.27;6.35;;;;;;;-2.72;100.00;61717.19;5071904;28;20217;-80
2023/12/17 06:01:38;;;;;;;7.60;5.93;;;;;;;-2.73;100.00;61721.16;5071851;28;20207;-80
2023/12/17 06:04:05;;;;;;;7.75;6.03;;;;;;;-2.65;100.00;61726.81;5073290;28;20239;-81
2023/12/17 06:06:32;;;;;;;8.80;5.80;;;;;;;-2.62;100.00;61731.88;5086053;28;20243;-81
2023/12/17 06:09:00;;;;;;;6.82;5.35;;;;;;;-2.60;100.00;61731.41;5084476;28;20235;-81
2023/12/17 06:11:27;;;;;;;5.82;4.60;;;;;;;-2.63;100.00;61735.84;5090658;28;20272;-79
2023/12/17 06:13:54;;;;;;;6.03;4.90;;;;;;;-2.63;100.00;61733.34;5079233;28;20217;-80
2023/12/17 06:16:21;;;;;;;6.22;5.40;;;;;;;-2.61;100.00;61732.91;5093243;28;20196;-80
2023/12/17 06:18:50;;;;;;;8.38;5.35;;;;;;;-2.54;100.00;61740.56;5088386;28;20236;-80
2023/12/17 06:21:24;;;;;;;7.65;5.70;;;;;;;-2.57;100.00;61732.00;5081686;28;20184;-81
2023/12/17 06:23:51;;;;;;;8.68;5.13;;;;;;;-2.54;100.00;61740.56;5080673;28;20236;-81
2023/12/17 06:26:20;;;;;;;11.50;6.53;;;;;;;-2.50;100.00;61749.13;5083754;28;20217;-81
2023/12/17 06:28:47;;;;;;;8.65;7.25;;;;;;;-2.46;100.00;61746.25;5076884;28;20260;-83
2023/12/17 06:31:14;;;;;;;10.95;7.43;;;;;;;-2.46;100.00;61746.25;5084301;28;20205;-79
2023/12/17 06:33:41;;;;;;;10.20;7.28;;;;;;;-2.49;100.00;61745.16;5080391;28;20221;-80
2023/12/17 06:36:09;;;;;;;10.10;7.05;;;;;;;-2.41;100.00;61755.81;5084998;28;20190;-80
2023/12/17 06:38:36;;;;;;;11.60;6.85;;;;;;;-2.40;100.00;61754.88;5078969;28;20213;-81
2023/12/17 06:41:04;;;;;;;10.10;6.72;;;;;;;-2.38;100.00;61759.41;5071881;28;20205;-80
2023/12/17 06:43:32;;;;;;;10.27;6.00;;;;;;;-2.33;100.00;61761.00;5072503;28;20567;-81
2023/12/17 06:45:59;;;;;;;9.43;7.05;;;;;;;-2.31;100.00;61758.06;5073066;28;20208;-81
2023/12/17 06:48:26;;;;;;;13.05;7.97;;;;;;;-2.19;100.00;61775.31;5072898;28;20553;-82
2023/12/17 06:50:53;;;;;;;12.55;7.45;;;;;;;-2.17;100.00;61777.88;5072709;28;20193;-80
2023/12/17 06:53:21;;;;;;;13.38;7.90;;;;;;;-2.14;100.00;61777.94;5070586;28;20556;-81
2023/12/17 06:55:48;;;;;;;12.95;8.13;;;;;;;-2.16;100.00;61775.91;5071295;28;20202;-81
2023/12/17 06:58:22;;;;;;;9.00;6.88;;;;;;;-2.10;100.00;61777.03;5076531;28;20267;-83
2023/12/17 07:00:50;;;;;;;11.77;7.50;;;;;;;-2.05;100.00;61787.16;5092051;28;20506;-81
2023/12/17 07:03:18;;;;;;;11.70;7.75;;;;;;;-2.00;100.00;61792.75;5080774;28;20264;-81
2023/12/17 07:05:45;;;;;;;10.18;7.05;;;;;;;-1.94;100.00;61798.91;5080155;28;20412;-81
2023/12/17 07:08:12;;;;;;;8.40;6.80;;;;;;;-1.89;100.00;61811.50;5081664;28;20219;-81
2023/12/17 07:10:39;;;;;;;11.20;6.70;;;;;;;-1.77;100.00;61818.78;5079995;28;20185;-83
2023/12/17 07:13:06;;;;;;;8.55;6.30;;;;;;;-1.70;100.00;61825.44;5084505;28;20419;-84
2023/12/17 07:15:33;;;;;;;6.90;5.82;;;;;;;-1.70;100.00;61820.44;5080627;28;20567;-81
2023/12/17 07:18:02;;;;;;;9.38;7.00;;;;;;;-1.56;100.00;61837.25;5082382;28;20241;-81
2023/12/17 07:20:29;;;;;;;32.22;20.30;;;;;;;-1.67;100.00;61829.00;5070913;28;20221;-80
2023/12/17 07:22:57;;;;;;;33.20;18.80;;;;;;;-1.58;100.00;61835.72;5071507;28;20228;-80
2023/12/17 07:25:26;;;;;;;14.88;10.07;;;;;;;-1.60;100.00;61835.66;5069770;28;20260;-81
2023/12/17 07:27:53;;;;;;;10.30;8.23;;;;;;;-1.59;100.00;61837.19;5070692;28;20209;-80
2023/12/17 07:30:20;;;;;;;10.65;7.35;;;;;;;-1.54;100.00;61837.31;5074684;28;20189;-81
2023/12/17 07:32:47;;;;;;;11.27;7.68;;;;;;;-1.47;100.00;61851.47;5077502;28;20217;-82
2023/12/17 07:35:16;;;;;;;10.52;7.45;;;;;;;-1.41;100.00;61858.09;5087861;28;20402;-81
2023/12/17 07:37:43;;;;;;;10.23;7.45;;;;;;;-1.41;100.00;61858.09;5077459;28;20237;-80
2023/12/17 07:40:14;;;;;;;10.20;7.07;;;;;;;-1.35;100.00;61861.75;5078195;28;20213;-81
2023/12/17 07:42:42;;;;;;;10.63;6.47;;;;;;;-1.31;100.00;61860.34;5085093;28;20504;-81
2023/12/17 07:45:10;;;;;;;12.10;9.23;;;;;;;-1.17;100.00;61884.16;5087615;28;20227;-79
2023/12/17 07:47:37;;;;;;;9.50;7.20;;;;;;;-1.05;100.00;61894.44;5077279;28;20304;-80
2023/12/17 07:50:05;;;;;;;9.07;6.07;;;;;;;-1.10;100.00;61889.31;5080797;28;20228;-80
2023/12/17 07:52:34;;;;;;;9.30;7.40;;;;;;;-1.10;100.00;61886.81;5079902;28;20196;-80
2023/12/17 07:55:00;;;;;;;10.48;8.20;;;;;;;-1.09;100.00;61887.34;5077092;28;20190;-81
2023/12/17 07:57:28;;;;;;;10.45;7.68;;;;;;;-0.96;100.00;61901.16;5085391;28;20221;-80
2023/12/17 07:59:55;;;;;;;9.95;7.65;;;;;;;-0.93;100.00;61903.72;5081606;28;20267;-80
2023/12/17 08:02:22;;;;;;;8.07;6.35;;;;;;;-0.89;100.00;61907.81;5082929;28;20194;-81
2023/12/17 08:04:49;;;;;;;12.07;6.35;;;;;;;-0.81;100.00;61918.50;5075093;28;20235;-80
2023/12/17 08:07:17;;;;;;;6.80;5.95;;;;;;;-0.84;100.00;61913.44;5078028;28;20261;-81
2023/12/17 08:09:45;;;;;;;9.65;6.03;;;;;;;-0.75;100.00;61924.66;5073803;28;20800;-80
2023/12/17 08:12:20;;;;;;;5.60;5.10;;;;;;;-0.64;100.00;61930.91;5083286;28;20212;-80
2023/12/17 08:14:47;;;;;;;10.73;5.68;;;;;;;-0.76;100.00;61921.63;5092172;28;20214;-80
2023/12/17 08:17:14;;;;;;;7.45;5.95;;;;;;;-0.62;100.00;61937.97;5070103;28;20208;-81
2023/12/17 08:19:42;;;;;;;7.28;5.55;;;;;;;-0.71;100.00;61928.75;5083229;28;20233;-82
2023/12/17 08:22:09;;;;;;;7.80;6.47;;;;;;;-0.46;100.00;61954.84;5087605;28;20389;-81
2023/12/17 08:24:36;;;;;;;6.72;5.95;;;;;;;-0.31;100.00;61967.72;5070213;28;20240;-81
2023/12/17 08:27:05;;;;;;;8.45;6.18;;;;;;;-0.11;100.00;61990.72;5075575;28;20208;-81
2023/12/17 08:29:32;;;;;;;10.80;6.22;;;;;;;-0.02;100.00;61994.44;5069444;28;20420;-81
2023/12/17 08:31:59;;;;;;;7.35;5.57;;;;;;;-0.11;100.00;61987.69;5077944;28;20216;-81
2023/12/17 08:34:28;;;;;;;8.70;5.88;;;;;;;0.00;100.00;62001.47;5083246;28;20280;-81
2023/12/17 08:36:55;;;;;;;5.40;4.85;;;;;;;0.03;100.00;62002.56;5082351;28;20204;-80
2023/12/17 08:39:23;;;;;;;8.73;5.93;;;;;;;0.11;100.00;62015.25;5076644;28;20221;-82
2023/12/17 08:41:50;;;;;;;5.88;4.32;;;;;;;0.03;100.00;62001.53;5081079;28;20240;-83
2023/12/17 08:44:22;;;;;;;6.15;5.22;;;;;;;0.11;100.00;62009.72;5068187;28;20244;-81
2023/12/17 08:46:49;;;;;;;5.28;4.78;;;;;;;0.06;100.00;62005.13;5080772;28;20218;-82
2023/12/17 08:49:16;;;;;;;5.60;5.10;;;;;;;0.07;100.00;62008.63;5073171;28;20240;-82
2023/12/17 08:51:43;;;;;;;5.70;4.97;;;;;;;0.17;100.00;62016.41;5081312;28;20208;-82
2023/12/17 08:54:10;;;;;;;5.85;4.65;;;;;;;0.29;100.00;62028.69;5086792;28;20620;-83
2023/12/17 08:56:37;;;;;;;7.15;5.65;;;;;;;0.40;100.00;62039.47;5081207;28;20194;-80
2023/12/17 08:59:04;;;;;;;5.65;4.90;;;;;;;0.49;100.00;62053.69;5087207;28;20440;-79
2023/12/17 09:01:33;;;;;;;5.70;5.18;;;;;;;0.57;100.00;62054.88;5085615;28;20200;-80
2023/12/17 09:03:59;;;;;;;8.00;5.20;;;;;;;0.54;100.00;62046.28;5082588;28;20296;-81
2023/12/17 09:06:26;;;;;;;7.05;4.82;;;;;;;0.63;100.00;62063.56;5075973;28;20208;-80
2023/12/17 09:08:53;;;;;;;7.95;5.70;;;;;;;0.44;100.00;62043.56;5073807;28;20232;-78
2023/12/17 09:11:21;;;;;;;7.55;5.50;;;;;;;0.65;100.00;62068.13;5071767;28;20205;-80
2023/12/17 09:13:47;;;;;;;5.05;4.57;;;;;;;0.72;100.00;62075.28;5077604;28;20266;-80
2023/12/17 09:16:14;;;;;;;7.63;5.85;;;;;;;0.68;100.00;62065.66;5080386;28;20201;-80
2023/12/17 09:18:43;;;;;;;5.88;5.25;;;;;;;0.60;100.00;62063.00;5078203;28;20474;-82
2023/12/17 09:21:10;;;;;;;8.93;6.13;;;;;;;0.72;100.00;62072.78;5071076;28;20224;-80
2023/12/17 09:23:36;;;;;;;6.78;5.75;;;;;;;0.57;100.00;62059.91;5067309;28;20217;-80
2023/12/17 09:26:04;;;;;;;6.93;5.07;;;;;;;0.23;100.00;62019.53;5068109;28;20267;-80
2023/12/17 09:28:31;;;;;;;8.45;5.97;;;;;;;0.51;100.00;62050.72;5076348;28;20218;-79
2023/12/17 09:31:01;;;;;;;10.02;5.70;;;;;;;0.26;100.00;62025.13;5086100;28;20193;-79
2023/12/17 09:33:28;;;;;;;10.05;9.07;;;;;;;0.60;100.00;62065.50;5087096;28;20220;-79
2023/12/17 09:35:56;;;;;;;8.18;5.80;;;;;;;0.83;100.00;62086.03;5082452;28;20524;-80
2023/12/17 09:38:23;;;;;;;8.73;6.57;;;;;;;1.03;100.00;62104.56;5092269;28;20212;-79
2023/12/17 09:40:50;;;;;;;9.40;7.60;;;;;;;1.10;100.00;62111.75;5089749;28;20333;-78
2023/12/17 09:43:18;;;;;;;9.50;7.30;;;;;;;1.28;100.00;62129.19;5073472;28;20224;-79
2023/12/17 09:45:44;;;;;;;11.43;6.72;;;;;;;1.13;100.00;62114.31;5074754;28;20224;-80
2023/12/17 09:48:11;;;;;;;12.80;8.13;;;;;;;1.13;100.00;62111.81;5090996;28;20532;-80
2023/12/17 09:50:38;;;;;;;11.25;7.55;;;;;;;0.56;100.00;62051.38;5077908;28;20204;-78
2023/12/17 09:53:07;;;;;;;10.82;7.43;;;;;;;0.61;100.00;62064.00;5085190;28;20238;-78
2023/12/17 09:55:33;;;;;;;10.70;6.82;;;;;;;0.73;100.00;62073.28;5072339;28;20248;-79
2023/12/17 09:58:03;;;;;;;11.23;7.57;;;;;;;0.84;100.00;62087.59;5072227;28;20257;-80
2023/12/17 10:00:30;;;;;;;7.60;6.25;;;;;;;0.92;100.00;62093.28;5083134;28;20197;-79
2023/12/17 10:03:03;;;;;;;4.50;4.13;;;;;;;0.32;100.00;62034.28;5091167;28;20231;-80
2023/12/17 10:05:30;;;;;;;7.72;6.03;;;;;;;0.30;100.00;62032.22;5092761;28;20283;-80
2023/12/17 10:07:57;;;;;;;6.65;5.43;;;;;;;0.62;100.00;62062.00;5078010;28;20237;-80
2023/12/17 10:10:25;;;;;;;12.48;6.85;;;;;;;0.34;100.00;62031.31;5078188;28;20204;-80
2023/12/17 10:12:52;;;;;;;11.60;7.35;;;;;;;0.00;100.00;61998.97;5091763;28;20540;-80
2023/12/17 10:15:19;;;;;;;12.40;6.88;;;;;;;-0.40;100.00;61958.00;5109381;28;20420;-81
2023/12/17 10:17:49;;;;;;;9.05;6.97;;;;;;;-0.22;100.00;61976.44;5079366;28;20228;-81
2023/12/17 10:20:19;;;;;;;8.02;7.20;;;;;;;-0.13;100.00;61983.16;5092501;28;20188;-80
2023/12/17 10:22:59;;;;;;;8.63;6.95;;;;;;;0.10;100.00;62009.22;5090919;28;20220;-81
2023/12/17 10:25:27;;;;;;;7.57;6.63;;;;;;;0.07;100.00;62005.63;5091617;28;20266;-81
2023/12/17 10:27:56;;;;;;;10.80;6.57;;;;;;;0.40;100.00;62037.47;5072760;28;20240;-79
2023/12/17 10:30:25;;;;;;;10.88;6.75;;;;;;;0.51;100.00;62053.75;5085833;28;20201;-80
2023/12/17 10:32:53;;;;;;;10.15;7.25;;;;;;;0.98;100.00;62104.44;5092222;28;20212;-80
2023/12/17 10:35:20;;;;;;;8.85;6.88;;;;;;;0.91;100.00;62089.25;5087956;28;20205;-78
2023/12/17 10:37:47;;;;;;;8.60;7.20;;;;;;;1.17;100.00;62118.94;5089032;28;20248;-78
2023/12/17 10:40:14;;;;;;;8.60;6.57;;;;;;;0.73;100.00;62075.78;5075441;28;20201;-78
2023/12/17 10:42:42;;;;;;;9.82;7.30;;;;;;;0.83;100.00;62078.53;5083043;28;20521;-78
2023/12/17 10:45:11;;;;;;;9.77;6.95;;;;;;;0.74;100.00;62076.81;5086878;28;20228;-79
2023/12/17 10:47:38;;;;;;;9.50;7.32;;;;;;;0.46;100.00;62045.59;5071070;28;20193;-77
2023/12/17 10:50:06;;;;;;;8.05;6.57;;;;;;;0.22;100.00;62023.50;5074182;28;20258;-78
2023/12/17 10:52:33;;;;;;;9.07;6.55;;;;;;;0.07;100.00;62003.63;5075526;28;20202;-77
2023/12/17 10:55:00;;;;;;;10.85;7.55;;;;;;;-0.04;100.00;62000.41;5073736;28;20207;-78
2023/12/17 10:57:27;;;;;;;13.02;8.13;;;;;;;-0.19;100.00;61982.00;5082610;28;20200;-79
2023/12/17 10:59:56;;;;;;;14.70;7.28;;;;;;;-0.20;100.00;61981.50;5076831;28;20205;-79
2023/12/17 11:02:24;;;;;;;11.27;7.32;;;;;;;-0.17;100.00;61982.06;5072333;28;20240;-77
2023/12/17 11:04:51;;;;;;;8.73;7.07;;;;;;;-0.07;100.00;61994.31;5072331;28;20264;-79
2023/12/17 11:07:22;;;;;;;11.90;7.95;;;;;;;0.14;100.00;62012.81;5084029;28;20272;-79
2023/12/17 11:09:49;;;;;;;9.65;7.50;;;;;;;0.22;100.00;62021.53;5081723;28;20197;-79
2023/12/17 11:12:17;;;;;;;11.05;8.48;;;;;;;0.66;100.00;62068.59;5082095;28;20181;-79
2023/12/17 11:14:44;;;;;;;10.55;8.23;;;;;;;1.14;100.00;62115.34;5072629;28;20194;-78
2023/12/17 11:17:14;;;;;;;9.82;7.32;;;;;;;1.14;100.00;62118.34;5083421;28;20227;-78
2023/12/17 11:19:56;;;;;;;9.70;7.57;;;;;;;1.16;100.00;62120.41;5081334;28;20231;-79
2023/12/17 11:22:23;;;;;;;10.18;7.95;;;;;;;1.15;100.00;62116.88;5076280;28;20219;-79
2023/12/17 11:24:52;;;;;;;10.85;8.35;;;;;;;1.15;100.00;62116.38;5071114;28;20410;-77